Time;durP1;ratioP1;P1;durP2;ratioP2;P2;SDS_P1;SDS_P2;PMS_P1;PMS_P2;Temp;Humidity;BMP_temperature;BMP_pressure;BME280_temperature;BME280_humidity;BME280_pressure;Samples;Min_cycle;Max_cycle;Signal;HPM_P1;HPM_P2
2022/09/15 00:01:36;;;;;;;;;;;;;;;21.60;57.19;99622.11;2297854;77;49593;-76
2022/09/15 00:04:38;;;;;;;;;;;;;;;21.61;57.13;99623.77;2289485;77;50387;-76
2022/09/15 00:07:40;;;;;;;;;;;;;;;21.62;57.11;99617.33;2291962;77;50358;-76
2022/09/15 00:10:49;;;;;;;;;;;;;;;21.62;57.07;99622.18;2311242;76;50363;-76
2022/09/15 00:13:50;;;;;;;;;;;;;;;21.60;57.25;99624.80;2266099;77;49840;-76
2022/09/15 00:16:52;;;;;;;;;;;;;;;21.63;57.08;99621.65;2293488;77;50369;-76
2022/09/15 00:19:53;;;;;;;;;;;;;;;21.62;57.09;99615.98;2297713;77;50605;-75
2022/09/15 00:22:55;;;;;;;;;;;;;;;21.61;57.10;99611.13;2293563;77;50752;-76
2022/09/15 00:25:57;;;;;;;;;;;;;;;21.58;57.40;99608.05;2297632;77;49572;-75
2022/09/15 00:28:58;;;;;;;;;;;;;;;21.57;57.35;99603.73;2297886;77;50776;-75
2022/09/15 00:32:00;;;;;;;;;;;;;;;21.60;57.26;99599.23;2296959;75;50390;-76
2022/09/15 00:35:02;;;;;;;;;;;;;;;21.55;57.30;99592.36;2297780;76;50753;-76
2022/09/15 00:38:03;;;;;;;;;;;;;;;21.57;57.24;99590.27;2310863;76;50332;-76
2022/09/15 00:41:05;;;;;;;;;;;;;;;21.56;57.32;99596.72;2310883;76;50251;-75
2022/09/15 00:44:17;;;;;;;;;;;;;;;21.55;57.33;99595.88;2332552;76;51561;-75
2022/09/15 00:47:20;;;;;;;;;;;;;;;21.51;57.41;99603.59;2330012;76;50770;-75
2022/09/15 00:50:22;;;;;;;;;;;;;;;21.55;57.24;99611.20;2331500;76;51105;-75
2022/09/15 00:53:23;;;;;;;;;;;;;;;21.56;57.30;99607.48;2331886;76;51505;-75
2022/09/15 00:56:25;;;;;;;;;;;;;;;21.56;57.35;99610.17;2331549;76;51461;-75
2022/09/15 00:59:28;;;;;;;;;;;;;;;21.57;57.15;99611.28;2331915;76;50631;-76
2022/09/15 01:02:31;;;;;;;;;;;;;;;21.58;57.16;99611.59;2321571;75;49613;-76
2022/09/15 01:05:37;;;;;;;;;;;;;;;21.57;57.11;99609.12;2310862;75;50329;-76
2022/09/15 01:08:40;;;;;;;;;;;;;;;21.55;57.05;99603.13;2319067;76;50806;-76
2022/09/15 01:11:42;;;;;;;;;;;;;;;21.59;56.96;99604.33;2332114;76;51535;-75
2022/09/15 01:14:43;;;;;;;;;;;;;;;21.59;56.96;99602.45;2304107;76;50282;-75
2022/09/15 01:17:46;;;;;;;;;;;;;;;21.55;57.09;99601.26;2331872;76;50366;-76
2022/09/15 01:20:56;;;;;;;;;;;;;;;21.58;56.97;99601.33;2331272;76;50308;-76
2022/09/15 01:24:15;;;;;;;;;;;;;;;21.58;56.99;99605.36;2331392;76;51614;-76
2022/09/15 01:27:21;;;;;;;;;;;;;;;21.59;56.93;99611.06;2326658;76;49706;-76
2022/09/15 01:30:23;;;;;;;;;;;;;;;21.55;56.97;99604.48;2331929;76;51591;-76
2022/09/15 01:33:33;;;;;;;;;;;;;;;21.61;56.97;99613.00;2331905;76;50433;-77
2022/09/15 01:36:39;;;;;;;;;;;;;;;21.55;57.03;99617.41;2318701;75;52672;-76
2022/09/15 01:39:41;;;;;;;;;;;;;;;21.59;56.95;99620.48;2330947;76;53094;-76
2022/09/15 01:42:42;;;;;;;;;;;;;;;21.59;56.96;99620.48;2332112;76;50791;-76
2022/09/15 01:45:44;;;;;;;;;;;;;;;21.58;56.96;99619.67;2331943;76;51422;-76
2022/09/15 01:48:46;;;;;;;;;;;;;;;21.58;56.94;99621.52;2332139;76;51533;-76
2022/09/15 01:51:48;;;;;;;;;;;;;;;21.58;56.94;99622.86;2326986;76;49591;-77
2022/09/15 01:54:50;;;;;;;;;;;;;;;21.58;56.94;99616.98;2331459;76;50389;-76
2022/09/15 01:57:52;;;;;;;;;;;;;;;21.57;56.90;99618.00;2331927;75;51565;-77
2022/09/15 02:00:55;;;;;;;;;;;;;;;21.58;56.92;99618.33;2319961;75;51729;-77
2022/09/15 02:04:04;;;;;;;;;;;;;;;21.58;56.87;99614.28;2301052;76;51208;-76
2022/09/15 02:07:10;;;;;;;;;;;;;;;21.57;56.92;99610.46;2321721;75;51680;-76
2022/09/15 02:10:14;;;;;;;;;;;;;;;21.57;56.89;99605.08;2331816;76;50498;-76
2022/09/15 02:13:17;;;;;;;;;;;;;;;21.58;56.93;99612.09;2327568;76;50094;-76
2022/09/15 02:16:20;;;;;;;;;;;;;;;21.55;56.90;99609.33;2300671;76;49426;-76
2022/09/15 02:19:24;;;;;;;;;;;;;;;21.56;56.89;99611.52;2332269;76;51523;-76
2022/09/15 02:22:26;;;;;;;;;;;;;;;21.55;56.88;99620.09;2332192;76;22444;-76
2022/09/15 02:25:29;;;;;;;;;;;;;;;21.55;56.91;99620.63;2326338;75;51528;-76
2022/09/15 02:28:32;;;;;;;;;;;;;;;21.53;56.93;99622.22;2321044;76;50127;-77
2022/09/15 02:31:34;;;;;;;;;;;;;;;21.53;56.90;99620.34;2325237;75;51486;-76
2022/09/15 02:34:36;;;;;;;;;;;;;;;21.53;56.91;99610.11;2327190;76;50810;-76
2022/09/15 02:37:38;;;;;;;;;;;;;;;21.52;56.92;99607.92;2332009;76;51673;-76
2022/09/15 02:40:41;;;;;;;;;;;;;;;21.52;56.90;99602.53;2309666;76;51258;-76
2022/09/15 02:43:48;;;;;;;;;;;;;;;21.52;56.93;99590.95;2331882;76;50316;-76
2022/09/15 02:46:49;;;;;;;;;;;;;;;21.52;56.97;99614.65;2330956;76;51534;-76
2022/09/15 02:49:51;;;;;;;;;;;;;;;21.52;56.94;99612.48;2332324;76;51446;-76
2022/09/15 02:52:53;;;;;;;;;;;;;;;21.51;56.93;99617.58;2329145;76;49645;-76
2022/09/15 02:55:56;;;;;;;;;;;;;;;21.51;56.93;99619.74;2331842;76;51544;-76
2022/09/15 02:58:58;;;;;;;;;;;;;;;21.52;56.88;99621.38;2332126;76;50748;-76
2022/09/15 03:02:00;;;;;;;;;;;;;;;21.53;56.89;99623.03;2308069;76;51447;-77
2022/09/15 03:05:02;;;;;;;;;;;;;;;21.52;56.84;99624.06;2280662;76;50116;-76
2022/09/15 03:08:03;;;;;;;;;;;;;;;21.52;56.87;99617.87;2281241;77;51610;-76
2022/09/15 03:11:05;;;;;;;;;;;;;;;21.52;56.89;99621.38;2281238;77;52342;-76
2022/09/15 03:14:08;;;;;;;;;;;;;;;21.50;56.95;99619.46;2296285;77;50734;-76
2022/09/15 03:17:09;;;;;;;;;;;;;;;21.49;56.97;99612.41;2290281;77;51328;-75
2022/09/15 03:20:11;;;;;;;;;;;;;;;21.50;56.96;99611.89;2297490;77;51496;-76
2022/09/15 03:23:13;;;;;;;;;;;;;;;21.47;57.04;99614.50;2296687;77;50780;-76
2022/09/15 03:26:15;;;;;;;;;;;;;;;21.47;57.00;99615.85;2297410;77;51489;-76
2022/09/15 03:29:16;;;;;;;;;;;;;;;21.48;56.96;99610.78;2289982;77;51017;-76
2022/09/15 03:32:18;;;;;;;;;;;;;;;21.48;56.97;99607.28;2281206;77;51482;-76
2022/09/15 03:35:19;;;;;;;;;;;;;;;21.48;56.99;99608.62;2305576;75;50684;-76
2022/09/15 03:38:21;;;;;;;;;;;;;;;21.48;56.96;99615.35;2271287;75;52645;-76
2022/09/15 03:41:22;;;;;;;;;;;;;;;21.47;56.97;99618.55;2316720;76;51001;-76
2022/09/15 03:44:24;;;;;;;;;;;;;;;21.48;56.96;99618.05;2264511;76;50866;-76
2022/09/15 03:47:26;;;;;;;;;;;;;;;21.48;56.95;99617.52;2280690;77;52270;-76
2022/09/15 03:50:27;;;;;;;;;;;;;;;21.47;56.91;99613.16;2290750;77;50395;-76
2022/09/15 03:53:31;;;;;;;;;;;;;;;21.47;56.88;99618.55;2289881;77;51534;-76
2022/09/15 03:56:33;;;;;;;;;;;;;;;21.47;56.89;99617.20;2290747;77;49932;-76
2022/09/15 03:59:34;;;;;;;;;;;;;;;21.47;56.91;99615.85;2279913;77;50732;-75
2022/09/15 04:02:36;;;;;;;;;;;;;;;21.46;56.92;99611.53;2286797;76;51510;-76
2022/09/15 04:05:37;;;;;;;;;;;;;;;21.44;56.99;99608.77;2296945;76;51494;-76
2022/09/15 04:08:39;;;;;;;;;;;;;;;21.45;56.90;99612.59;2319458;76;51343;-75
2022/09/15 04:11:41;;;;;;;;;;;;;;;21.47;56.85;99610.47;2324988;76;51485;-76
2022/09/15 04:14:43;;;;;;;;;;;;;;;21.44;57.19;99608.77;2324558;76;51497;-76
2022/09/15 04:17:44;;;;;;;;;;;;;;;21.44;57.24;99606.89;2316494;76;50733;-76
2022/09/15 04:20:46;;;;;;;;;;;;;;;21.42;57.56;99613.55;2270854;76;50847;-75
2022/09/15 04:23:48;;;;;;;;;;;;;;;21.41;57.48;99607.88;2318165;76;51523;-76
2022/09/15 04:26:49;;;;;;;;;;;;;;;21.41;57.63;99613.27;2321782;76;51513;-77
2022/09/15 04:29:51;;;;;;;;;;;;;;;21.40;57.94;99615.64;2279526;77;51477;-76
2022/09/15 04:32:53;;;;;;;;;;;;;;;21.41;57.87;99611.39;2276892;78;51850;-77
2022/09/15 04:36:01;;;;;;;;;;;;;;;21.44;57.88;99611.45;2281052;78;51479;-78
2022/09/15 04:39:02;;;;;;;;;;;;;;;21.44;57.81;99613.62;2277311;78;50790;-78
2022/09/15 04:42:05;;;;;;;;;;;;;;;21.43;57.65;99611.17;2287697;76;51417;-78
2022/09/15 04:45:07;;;;;;;;;;;;;;;21.43;57.58;99613.86;2298069;76;51877;-78
2022/09/15 04:48:09;;;;;;;;;;;;;;;21.45;57.42;99612.59;2314341;76;50742;-80
2022/09/15 04:51:12;;;;;;;;;;;;;;;21.49;57.32;99611.07;2302645;76;51414;-79
2022/09/15 04:54:13;;;;;;;;;;;;;;;21.45;57.88;99609.90;2299609;76;49992;-80
2022/09/15 04:57:15;;;;;;;;;;;;;;;21.47;57.76;99609.12;2360084;74;49539;-80
2022/09/15 05:00:16;;;;;;;;;;;;;;;21.45;57.90;99609.05;2378403;75;50354;-78
2022/09/15 05:03:18;;;;;;;;;;;;;;;21.44;58.07;99605.55;2378330;75;50374;-78
2022/09/15 05:06:20;;;;;;;;;;;;;;;21.42;58.43;99611.67;2327802;75;50325;-78
2022/09/15 05:09:22;;;;;;;;;;;;;;;21.40;58.08;99608.41;2309982;76;53651;-79
2022/09/15 05:12:23;;;;;;;;;;;;;;;21.44;58.12;99608.77;2293679;77;52195;-77
2022/09/15 05:15:25;;;;;;;;;;;;;;;21.40;58.23;99612.95;2274748;78;51180;-77
2022/09/15 05:18:27;;;;;;;;;;;;;;;21.40;58.17;99611.10;2274521;78;50377;-77
2022/09/15 05:21:28;;;;;;;;;;;;;;;21.43;58.11;99602.57;2312035;74;51673;-77
2022/09/15 05:24:30;;;;;;;;;;;;;;;21.46;57.93;99610.19;2318884;75;51502;-77
2022/09/15 05:27:32;;;;;;;;;;;;;;;21.49;57.72;99608.91;2328387;76;51540;-78
2022/09/15 05:30:34;;;;;;;;;;;;;;;21.50;57.63;99612.73;2328341;76;51756;-78
2022/09/15 05:33:35;;;;;;;;;;;;;;;21.50;57.69;99615.42;2289151;77;51402;-78
2022/09/15 05:36:37;;;;;;;;;;;;;;;21.50;57.69;99611.89;2294931;76;51478;-78
2022/09/15 05:39:39;;;;;;;;;;;;;;;21.50;57.52;99605.16;2317934;76;51081;-78
2022/09/15 05:42:41;;;;;;;;;;;;;;;21.53;57.53;99608.77;2314482;77;51804;-78
2022/09/15 05:45:43;;;;;;;;;;;;;;;21.55;57.45;99611.20;2282621;77;50880;-78
2022/09/15 05:48:44;;;;;;;;;;;;;;;21.56;57.48;99616.91;2314450;77;50687;-78
2022/09/15 05:51:46;;;;;;;;;;;;;;;21.55;57.41;99608.52;2314677;77;50387;-78
2022/09/15 05:54:47;;;;;;;;;;;;;;;21.57;57.41;99612.63;2314168;77;50395;-78
2022/09/15 05:57:49;;;;;;;;;;;;;;;21.62;57.26;99610.59;2314921;77;50643;-77
2022/09/15 06:00:52;;;;;;;;;;;;;;;21.68;57.08;99605.64;2314227;77;50745;-78
2022/09/15 06:03:54;;;;;;;;;;;;;;;21.69;57.10;99612.68;2325774;75;50788;-78
2022/09/15 06:06:55;;;;;;;;;;;;;;;21.72;57.05;99616.25;2324048;74;50140;-77
2022/09/15 06:09:57;;;;;;;;;;;;;;;21.77;56.89;99617.73;2277490;77;50281;-78
2022/09/15 06:12:59;;;;;;;;;;;;;;;21.79;56.72;99621.03;2277263;78;50250;-78
2022/09/15 06:16:02;;;;;;;;;;;;;;;21.84;56.62;99628.42;2276942;78;50730;-78
2022/09/15 06:19:03;;;;;;;;;;;;;;;21.85;56.53;99633.56;2289204;76;50788;-77
2022/09/15 06:22:05;;;;;;;;;;;;;;;21.85;56.49;99628.70;2310547;76;49613;-78
2022/09/15 06:25:07;;;;;;;;;;;;;;;21.83;56.50;99624.89;2319635;76;50497;-77
2022/09/15 06:28:08;;;;;;;;;;;;;;;21.84;56.46;99632.47;2320909;76;50059;-78
2022/09/15 06:31:11;;;;;;;;;;;;;;;21.81;56.65;99630.20;2295015;76;50366;-77
2022/09/15 06:34:12;;;;;;;;;;;;;;;21.80;56.71;99629.39;2322716;76;50161;-79
2022/09/15 06:37:14;;;;;;;;;;;;;;;21.80;56.71;99628.58;2321269;76;50764;-78
2022/09/15 06:40:16;;;;;;;;;;;;;;;21.83;56.74;99627.58;2321157;76;50396;-78
2022/09/15 06:43:18;;;;;;;;;;;;;;;21.85;56.70;99628.70;2321112;76;51528;-78
2022/09/15 06:46:20;;;;;;;;;;;;;;;21.90;56.70;99624.80;2323181;76;52484;-78
2022/09/15 06:49:22;;;;;;;;;;;;;;;21.85;56.61;99630.88;2297232;76;50726;-79
2022/09/15 06:52:23;;;;;;;;;;;;;;;21.88;56.31;99626.90;2321608;76;50376;-78
2022/09/15 06:55:25;;;;;;;;;;;;;;;21.83;56.37;99627.58;2297400;76;50492;-78
2022/09/15 06:58:26;;;;;;;;;;;;;;;21.83;56.38;99625.42;2272066;76;50133;-78
2022/09/15 07:01:29;;;;;;;;;;;;;;;21.79;56.39;99636.37;2308200;74;50798;-78
2022/09/15 07:04:30;;;;;;;;;;;;;;;21.80;56.33;99632.61;2369968;75;51528;-78
2022/09/15 07:07:32;;;;;;;;;;;;;;;21.79;56.42;99633.67;2296841;75;50797;-78
2022/09/15 07:10:34;;;;;;;;;;;;;;;21.78;56.40;99634.17;2383714;74;49598;-77
2022/09/15 07:13:35;;;;;;;;;;;;;;;21.80;56.53;99632.08;2367556;75;52514;-78
2022/09/15 07:16:37;;;;;;;;;;;;;;;21.81;56.46;99635.59;2376742;75;51398;-77
2022/09/15 07:19:40;;;;;;;;;;;;;;;21.80;56.27;99632.61;2318518;75;50350;-77
2022/09/15 07:22:43;;;;;;;;;;;;;;;21.77;56.29;99632.55;2273905;77;50957;-78
2022/09/15 07:25:44;;;;;;;;;;;;;;;21.77;56.31;99647.36;2297121;77;50024;-77
2022/09/15 07:28:48;;;;;;;;;;;;;;;21.75;56.30;99649.45;2297256;76;50385;-77
2022/09/15 07:31:50;;;;;;;;;;;;;;;21.73;56.33;99653.73;2297330;76;50298;-79
2022/09/15 07:34:51;;;;;;;;;;;;;;;21.73;56.33;99653.73;2248567;77;49420;-77
2022/09/15 07:37:53;;;;;;;;;;;;;;;21.75;56.28;99661.56;2273769;77;50343;-77
2022/09/15 07:40:55;;;;;;;;;;;;;;;21.73;56.30;99665.00;2297393;77;50730;-78
2022/09/15 07:43:57;;;;;;;;;;;;;;;21.72;56.31;99668.76;2297112;77;50360;-77
2022/09/15 07:46:58;;;;;;;;;;;;;;;21.72;56.31;99663.38;2328832;75;51413;-78
2022/09/15 07:50:00;;;;;;;;;;;;;;;21.71;56.30;99666.59;2325429;75;51509;-77
2022/09/15 07:53:02;;;;;;;;;;;;;;;21.70;56.28;99674.89;2314563;77;50794;-78
2022/09/15 07:56:03;;;;;;;;;;;;;;;21.69;56.29;99674.61;2314190;77;51465;-78
2022/09/15 07:59:06;;;;;;;;;;;;;;;21.67;56.28;99672.66;2265206;77;50933;-77
2022/09/15 08:02:09;;;;;;;;;;;;;;;21.67;56.27;99680.73;2314302;77;50440;-77
2022/09/15 08:05:11;;;;;;;;;;;;;;;21.67;56.24;99689.63;2299704;77;50479;-77
2022/09/15 08:08:12;;;;;;;;;;;;;;;21.66;56.22;99693.91;2310878;75;50393;-78
2022/09/15 08:11:16;;;;;;;;;;;;;;;21.66;56.22;99688.52;2356111;74;49557;-77
2022/09/15 08:14:18;;;;;;;;;;;;;;;21.67;56.20;99686.12;2367973;75;22415;-77
2022/09/15 08:17:19;;;;;;;;;;;;;;;21.65;56.21;99691.72;2377968;75;50625;-78
2022/09/15 08:20:21;;;;;;;;;;;;;;;21.67;56.14;99692.84;2377922;75;50714;-77
2022/09/15 08:23:22;;;;;;;;;;;;;;;21.65;56.17;99687.68;2380153;74;50857;-77
2022/09/15 08:26:24;;;;;;;;;;;;;;;21.66;56.10;99679.10;2367909;75;51463;-77
2022/09/15 08:29:26;;;;;;;;;;;;;;;21.66;56.12;99674.53;2377988;75;50361;-78
2022/09/15 08:32:27;;;;;;;;;;;;;;;21.66;56.08;99683.95;2375677;75;50391;-78
2022/09/15 08:35:31;;;;;;;;;;;;;;;21.66;56.08;99686.65;2280156;77;50149;-77
2022/09/15 08:38:32;;;;;;;;;;;;;;;21.65;56.09;99687.68;2296383;76;24572;-77
2022/09/15 08:41:37;;;;;;;;;;;;;;;21.67;56.08;99682.08;2318853;76;50665;-78
2022/09/15 08:44:41;;;;;;;;;;;;;;;21.66;56.05;99683.95;2318695;76;50763;-78
2022/09/15 08:47:43;;;;;;;;;;;;;;;21.67;56.03;99684.77;2317898;76;50820;-77
2022/09/15 08:50:45;;;;;;;;;;;;;;;21.68;56.00;99703.91;2317718;76;50424;-78
2022/09/15 08:53:48;;;;;;;;;;;;;;;21.68;55.96;99691.78;2317548;76;51519;-78
2022/09/15 08:56:50;;;;;;;;;;;;;;;21.66;55.97;99693.38;2317642;76;50442;-77
2022/09/15 08:59:53;;;;;;;;;;;;;;;21.67;55.95;99688.28;2293674;76;50046;-77
2022/09/15 09:02:56;;;;;;;;;;;;;;;21.67;55.91;99682.89;2301245;76;51521;-78
2022/09/15 09:06:00;;;;;;;;;;;;;;;21.66;55.94;99683.14;2281525;78;50665;-78
2022/09/15 09:09:06;;;;;;;;;;;;;;;21.65;55.93;99676.91;2287064;77;50763;-78
2022/09/15 09:12:26;;;;;;;;;;;;;;;21.68;55.88;99689.09;2261136;78;50924;-78
2022/09/15 09:15:38;;;;;;;;;;;;;;;21.67;55.92;99690.16;2286698;78;50704;-78
2022/09/15 09:18:50;;;;;;;;;;;;;;;21.66;55.87;99688.52;2286357;77;50414;-78
2022/09/15 09:21:53;;;;;;;;;;;;;;;21.66;55.83;99683.95;2286978;78;51715;-77
2022/09/15 09:24:55;;;;;;;;;;;;;;;21.64;55.88;99687.92;2286253;77;52690;-77
2022/09/15 09:27:57;;;;;;;;;;;;;;;21.63;55.89;99690.30;2286892;78;50799;-77
2022/09/15 09:31:00;;;;;;;;;;;;;;;21.64;55.84;99693.30;2286852;78;50317;-78
2022/09/15 09:34:03;;;;;;;;;;;;;;;21.65;55.80;99693.59;2304124;76;50317;-77
2022/09/15 09:37:06;;;;;;;;;;;;;;;21.63;55.87;99683.57;2269706;78;51401;-77
2022/09/15 09:40:11;;;;;;;;;;;;;;;21.62;55.83;99680.06;2282060;78;51485;-77
2022/09/15 09:43:13;;;;;;;;;;;;;;;21.64;55.77;99687.92;2282578;78;50374;-78
2022/09/15 09:46:16;;;;;;;;;;;;;;;21.66;55.75;99684.48;2282392;76;50340;-77
2022/09/15 09:49:24;;;;;;;;;;;;;;;21.64;55.77;99676.62;2284329;77;50108;-76
2022/09/15 09:52:33;;;;;;;;;;;;;;;21.64;55.77;99676.62;2259105;78;50771;-77
2022/09/15 09:55:34;;;;;;;;;;;;;;;21.65;55.72;99680.95;2282368;78;51462;-77
2022/09/15 09:58:36;;;;;;;;;;;;;;;21.64;55.71;99679.84;2259150;78;53885;-77
2022/09/15 10:01:37;;;;;;;;;;;;;;;21.65;55.72;99681.48;2282148;77;50952;-77
2022/09/15 10:04:39;;;;;;;;;;;;;;;21.64;55.68;99683.88;2294958;76;51500;-77
2022/09/15 10:07:45;;;;;;;;;;;;;;;21.66;55.58;99681.80;2274983;78;52325;-77
2022/09/15 10:10:51;;;;;;;;;;;;;;;21.67;55.57;99685.59;2286601;78;22421;-76
2022/09/15 10:13:53;;;;;;;;;;;;;;;21.69;55.48;99684.03;2286242;78;49509;-77
2022/09/15 10:17:02;;;;;;;;;;;;;;;21.68;55.49;99687.25;2286786;78;51500;-77
2022/09/15 10:20:05;;;;;;;;;;;;;;;21.68;55.49;99680.52;2286780;78;51479;-78
2022/09/15 10:23:20;;;;;;;;;;;;;;;21.67;55.53;99688.81;2286917;78;51535;-77
2022/09/15 10:26:26;;;;;;;;;;;;;;;21.65;55.53;99680.13;2286574;78;51110;-77
2022/09/15 10:29:28;;;;;;;;;;;;;;;21.66;55.48;99681.80;2286645;78;51529;-78
2022/09/15 10:32:30;;;;;;;;;;;;;;;21.66;55.47;99679.10;2277526;78;50459;-78
2022/09/15 10:35:32;;;;;;;;;;;;;;;21.66;55.44;99680.45;2284342;78;50678;-78
2022/09/15 10:38:35;;;;;;;;;;;;;;;21.66;55.43;99669.68;2284545;77;49673;-77
2022/09/15 10:41:41;;;;;;;;;;;;;;;21.65;55.43;99676.09;2282005;78;50487;-78
2022/09/15 10:44:44;;;;;;;;;;;;;;;21.66;55.39;99683.14;2281597;78;50551;-77
2022/09/15 10:47:50;;;;;;;;;;;;;;;21.65;55.41;99684.98;2280323;78;50503;-77
2022/09/15 10:50:59;;;;;;;;;;;;;;;21.65;55.41;99674.75;2258995;78;52665;-78
2022/09/15 10:54:12;;;;;;;;;;;;;;;21.64;55.40;99678.50;2282577;78;51570;-77
2022/09/15 10:57:34;;;;;;;;;;;;;;;21.66;55.35;99676.41;2282113;78;50417;-78
2022/09/15 11:00:37;;;;;;;;;;;;;;;21.67;55.31;99677.52;2282347;78;50360;-78
2022/09/15 11:03:40;;;;;;;;;;;;;;;21.68;55.22;99669.75;2291149;76;51545;-77
2022/09/15 11:06:46;;;;;;;;;;;;;;;21.65;55.25;99663.45;2308439;76;51433;-78
2022/09/15 11:09:55;;;;;;;;;;;;;;;21.63;55.31;99668.77;2321260;76;50728;-78
2022/09/15 11:13:02;;;;;;;;;;;;;;;21.62;55.39;99671.17;2319937;76;50682;-78
2022/09/15 11:16:06;;;;;;;;;;;;;;;21.63;55.34;99671.45;2321137;76;55654;-78
2022/09/15 11:19:12;;;;;;;;;;;;;;;21.64;55.26;99670.42;2320942;76;52521;-80
2022/09/15 11:22:15;;;;;;;;;;;;;;;21.64;55.26;99665.86;2291806;76;50956;-78
2022/09/15 11:25:18;;;;;;;;;;;;;;;21.65;55.21;99673.41;2319741;75;50411;-77
2022/09/15 11:28:21;;;;;;;;;;;;;;;21.66;55.17;99672.38;2323345;76;52758;-78
2022/09/15 11:31:25;;;;;;;;;;;;;;;21.65;55.10;99671.52;2321392;76;50486;-78
2022/09/15 11:34:32;;;;;;;;;;;;;;;21.65;55.12;99666.67;2313213;76;51579;-78
2022/09/15 11:37:35;;;;;;;;;;;;;;;21.65;55.13;99672.87;2286474;78;49746;-78
2022/09/15 11:40:42;;;;;;;;;;;;;;;21.64;55.12;99666.39;2261053;78;52967;-78
2022/09/15 11:43:48;;;;;;;;;;;;;;;21.67;55.02;99664.58;2285841;78;51636;-77
2022/09/15 11:47:03;;;;;;;;;;;;;;;21.66;55.00;99665.64;2288423;78;51643;-79
2022/09/15 11:50:06;;;;;;;;;;;;;;;21.65;54.98;99662.10;2286741;77;51369;-78
2022/09/15 11:53:27;;;;;;;;;;;;;;;21.64;54.98;99671.77;2286844;77;51591;-77
2022/09/15 11:56:30;;;;;;;;;;;;;;;21.62;55.05;99665.25;2287187;78;51611;-78
2022/09/15 11:59:45;;;;;;;;;;;;;;;21.62;55.06;99671.17;2287375;78;50388;-78
2022/09/15 12:02:55;;;;;;;;;;;;;;;21.60;55.08;99672.73;2298395;76;51711;-78
2022/09/15 12:05:58;;;;;;;;;;;;;;;21.58;55.13;99675.35;2322707;76;52608;-77
2022/09/15 12:09:01;;;;;;;;;;;;;;;21.58;55.10;99673.50;2323372;76;50518;-78
2022/09/15 12:12:04;;;;;;;;;;;;;;;21.58;55.08;99666.77;2290726;77;51463;-78
2022/09/15 12:15:06;;;;;;;;;;;;;;;21.58;55.06;99668.63;2291045;77;51556;-78
2022/09/15 12:18:09;;;;;;;;;;;;;;;21.58;55.06;99665.93;2265282;77;49668;-78
2022/09/15 12:21:22;;;;;;;;;;;;;;;21.58;55.04;99668.63;2313946;76;50416;-78
2022/09/15 12:24:36;;;;;;;;;;;;;;;21.57;55.04;99669.68;2314511;76;51531;-80
2022/09/15 12:27:38;;;;;;;;;;;;;;;21.55;55.07;99679.31;2314634;77;51501;-78
2022/09/15 12:30:40;;;;;;;;;;;;;;;21.55;55.06;99686.05;2285176;77;49535;-77
2022/09/15 12:33:43;;;;;;;;;;;;;;;21.55;55.03;99683.35;2290566;77;51639;-78
2022/09/15 12:36:47;;;;;;;;;;;;;;;21.55;54.99;99682.01;2354348;75;50277;-77
2022/09/15 12:39:48;;;;;;;;;;;;;;;21.53;55.02;99679.56;2348290;75;51380;-77
2022/09/15 12:42:50;;;;;;;;;;;;;;;21.56;54.99;99685.55;2376211;75;49543;-78
2022/09/15 12:45:53;;;;;;;;;;;;;;;21.52;55.04;99673.86;2374429;75;50337;-78
2022/09/15 12:48:56;;;;;;;;;;;;;;;21.54;55.00;99677.69;2375658;75;50858;-78
2022/09/15 12:51:58;;;;;;;;;;;;;;;21.54;54.94;99670.95;2378348;75;51540;-78
2022/09/15 12:55:01;;;;;;;;;;;;;;;21.57;54.93;99675.06;2380309;74;50075;-77
2022/09/15 12:58:11;;;;;;;;;;;;;;;21.54;54.95;99674.99;2378428;75;50266;-78
2022/09/15 13:01:20;;;;;;;;;;;;;;;21.53;54.96;99676.88;2377365;74;51516;-77
2022/09/15 13:04:32;;;;;;;;;;;;;;;21.55;54.95;99674.46;2319461;75;50381;-77
2022/09/15 13:07:34;;;;;;;;;;;;;;;21.55;54.93;99673.12;2286926;77;50620;-77
2022/09/15 13:10:38;;;;;;;;;;;;;;;21.56;54.89;99675.59;2297726;77;51469;-77
2022/09/15 13:13:42;;;;;;;;;;;;;;;21.58;54.87;99668.63;2297748;76;51557;-77
2022/09/15 13:16:45;;;;;;;;;;;;;;;21.59;54.78;99664.90;2297980;77;50678;-78
2022/09/15 13:19:48;;;;;;;;;;;;;;;21.60;54.76;99657.11;2297822;77;50729;-78
2022/09/15 13:22:51;;;;;;;;;;;;;;;21.59;54.83;99656.83;2298053;76;50391;-78
2022/09/15 13:25:53;;;;;;;;;;;;;;;21.59;54.82;99662.20;2297851;77;50826;-77
2022/09/15 13:28:56;;;;;;;;;;;;;;;21.59;54.90;99660.86;2298451;76;51528;-78
2022/09/15 13:32:17;;;;;;;;;;;;;;;21.59;54.87;99660.33;2297995;77;50798;-77
2022/09/15 13:35:29;;;;;;;;;;;;;;;21.61;54.77;99650.69;2337394;75;51634;-78
2022/09/15 13:38:32;;;;;;;;;;;;;;;21.59;54.83;99649.56;2297393;77;51475;-78
2022/09/15 13:41:52;;;;;;;;;;;;;;;21.57;54.89;99654.34;2297941;77;51511;-78
2022/09/15 13:44:58;;;;;;;;;;;;;;;21.56;54.95;99654.59;2299582;76;49707;-79
2022/09/15 13:48:07;;;;;;;;;;;;;;;21.56;54.96;99646.52;2298539;76;50500;-78
2022/09/15 13:51:11;;;;;;;;;;;;;;;21.58;54.90;99651.97;2301288;76;51613;-77
2022/09/15 13:54:17;;;;;;;;;;;;;;;21.60;54.89;99651.19;2289330;76;50809;-78
2022/09/15 13:57:19;;;;;;;;;;;;;;;21.58;54.88;99638.51;2299885;77;50857;-77
2022/09/15 14:00:23;;;;;;;;;;;;;;;21.60;54.88;99643.65;2297867;77;50381;-77
2022/09/15 14:06:57;;;;;;;;;;;;;;;21.59;54.93;99639.33;2259700;78;22449;-77
2022/09/15 14:09:58;;;;;;;;;;;;;;;21.57;54.93;99638.20;2235863;78;51790;-78
2022/09/15 14:13:00;;;;;;;;;;;;;;;21.58;54.93;99634.97;2262074;77;50732;-77
2022/09/15 14:16:03;;;;;;;;;;;;;;;21.59;54.89;99634.76;2262598;77;50841;-78
2022/09/15 14:19:06;;;;;;;;;;;;;;;21.58;54.92;99628.24;2260911;78;50757;-78
2022/09/15 14:22:18;;;;;;;;;;;;;;;21.57;54.93;99637.38;2222541;78;50144;-78
2022/09/15 14:25:20;;;;;;;;;;;;;;;21.56;54.92;99623.11;2251287;79;51114;-78
2022/09/15 14:28:24;;;;;;;;;;;;;;;21.56;54.95;99633.06;2249621;79;50740;-78
2022/09/15 14:31:33;;;;;;;;;;;;;;;21.54;54.99;99630.58;2249651;78;50395;-78
2022/09/15 14:34:35;;;;;;;;;;;;;;;21.51;55.01;99621.09;2229328;79;51528;-78
2022/09/15 14:37:37;;;;;;;;;;;;;;;21.55;54.96;99632.74;2245368;79;50697;-77
2022/09/15 14:40:40;;;;;;;;;;;;;;;21.53;54.98;99636.49;2249523;79;51522;-77
2022/09/15 14:43:41;;;;;;;;;;;;;;;21.52;55.00;99632.14;2269381;76;50370;-77
2022/09/15 14:46:43;;;;;;;;;;;;;;;21.51;54.99;99627.81;2317907;76;51409;-77
2022/09/15 14:49:44;;;;;;;;;;;;;;;21.51;55.01;99633.73;2325447;76;50423;-77
2022/09/15 14:52:48;;;;;;;;;;;;;;;21.51;55.00;99631.04;2325804;76;50734;-77
2022/09/15 14:55:56;;;;;;;;;;;;;;;21.50;55.01;99627.53;2325560;75;50795;-77
2022/09/15 14:59:00;;;;;;;;;;;;;;;21.48;55.00;99624.77;2292257;76;51898;-78
2022/09/15 15:02:03;;;;;;;;;;;;;;;21.51;54.99;99627.81;2325159;76;50813;-78
2022/09/15 15:05:07;;;;;;;;;;;;;;;21.50;55.00;99630.72;2305879;76;50276;-78
2022/09/15 15:08:09;;;;;;;;;;;;;;;21.48;55.02;99631.50;2286688;78;51592;-78
2022/09/15 15:11:10;;;;;;;;;;;;;;;21.47;55.00;99625.27;2286744;77;50990;-78
2022/09/15 15:14:12;;;;;;;;;;;;;;;21.48;54.99;99626.94;2287252;77;51501;-78
2022/09/15 15:17:21;;;;;;;;;;;;;;;21.47;54.98;99634.69;2287307;78;51579;-78
2022/09/15 15:20:31;;;;;;;;;;;;;;;21.46;55.02;99638.44;2287410;78;50350;-78
2022/09/15 15:23:33;;;;;;;;;;;;;;;21.49;54.98;99637.17;2286678;77;49638;-78
2022/09/15 15:26:35;;;;;;;;;;;;;;;21.47;54.99;99641.95;2287300;77;50236;-77
2022/09/15 15:29:47;;;;;;;;;;;;;;;21.45;54.99;99639.50;2287575;78;51530;-77
2022/09/15 15:32:49;;;;;;;;;;;;;;;21.46;54.96;99645.70;2292010;77;50865;-78
2022/09/15 15:36:10;;;;;;;;;;;;;;;21.45;55.00;99639.50;2284767;77;51026;-78
2022/09/15 15:39:13;;;;;;;;;;;;;;;21.44;54.99;99643.22;2297357;77;51584;-77
2022/09/15 15:42:15;;;;;;;;;;;;;;;21.44;54.96;99645.91;2296888;76;51513;-78
2022/09/15 15:45:21;;;;;;;;;;;;;;;21.44;54.99;99651.30;2297335;77;50331;-78
2022/09/15 15:48:23;;;;;;;;;;;;;;;21.43;54.99;99659.61;2300111;77;49646;-78
2022/09/15 15:51:25;;;;;;;;;;;;;;;21.41;55.00;99662.52;2297506;77;51538;-78
2022/09/15 15:54:27;;;;;;;;;;;;;;;21.41;54.99;99672.47;2297244;77;51545;-78
2022/09/15 15:57:29;;;;;;;;;;;;;;;21.41;54.95;99675.98;2297274;77;50740;-78
2022/09/15 16:00:35;;;;;;;;;;;;;;;21.40;54.94;99677.03;2273438;77;52607;-78